sensor_id;sensor_type;location;lat;lon;timestamp;pressure;altitude;pressure_sealevel;temperature
34310;BMP280;61664;48.112;11.662;2023-05-18T00:01:29;96020.88;;;12.66
34310;BMP280;61664;48.112;11.662;2023-05-18T00:03:56;96013.47;;;12.61
34310;BMP280;61664;48.112;11.662;2023-05-18T00:06:23;96002.34;;;12.44
34310;BMP280;61664;48.112;11.662;2023-05-18T00:08:53;96008.75;;;12.47
34310;BMP280;61664;48.112;11.662;2023-05-18T00:11:20;96002.81;;;12.43
34310;BMP280;61664;48.112;11.662;2023-05-18T00:13:48;96005.88;;;12.50
34310;BMP280;61664;48.112;11.662;2023-05-18T00:16:15;96010.25;;;12.48
34310;BMP280;61664;48.112;11.662;2023-05-18T00:18:42;95994.16;;;12.48
34310;BMP280;61664;48.112;11.662;2023-05-18T00:21:10;96003.06;;;12.54
34310;BMP280;61664;48.112;11.662;2023-05-18T00:23:37;95996.50;;;12.55
34310;BMP280;61664;48.112;11.662;2023-05-18T00:26:05;95984.88;;;12.49
34310;BMP280;61664;48.112;11.662;2023-05-18T00:28:32;95996.97;;;12.53
34310;BMP280;61664;48.112;11.662;2023-05-18T00:30:59;95984.34;;;12.45
34310;BMP280;61664;48.112;11.662;2023-05-18T00:33:26;95988.78;;;12.48
34310;BMP280;61664;48.112;11.662;2023-05-18T00:35:53;95993.88;;;12.46
34310;BMP280;61664;48.112;11.662;2023-05-18T00:38:22;95995.06;;;12.45
34310;BMP280;61664;48.112;11.662;2023-05-18T00:40:49;95972.19;;;12.35
34310;BMP280;61664;48.112;11.662;2023-05-18T00:43:16;95985.53;;;12.44
34310;BMP280;61664;48.112;11.662;2023-05-18T00:45:43;95990.91;;;12.44
34310;BMP280;61664;48.112;11.662;2023-05-18T00:48:10;95984.97;;;12.40
34310;BMP280;61664;48.112;11.662;2023-05-18T00:50:38;95998.19;;;12.43
34310;BMP280;61664;48.112;11.662;2023-05-18T00:53:06;95987.97;;;12.33
34310;BMP280;61664;48.112;11.662;2023-05-18T00:55:33;95989.19;;;12.32
34310;BMP280;61664;48.112;11.662;2023-05-18T00:58:00;95992.16;;;12.34
34310;BMP280;61664;48.112;11.662;2023-05-18T01:00:28;95989.59;;;12.30
34310;BMP280;61664;48.112;11.662;2023-05-18T01:02:55;95993.94;;;12.28
34310;BMP280;61664;48.112;11.662;2023-05-18T01:05:23;95983.44;;;12.15
34310;BMP280;61664;48.112;11.662;2023-05-18T01:07:50;95993.41;;;12.14
34310;BMP280;61664;48.112;11.662;2023-05-18T01:10:18;95983.00;;;12.07
34310;BMP280;61664;48.112;11.662;2023-05-18T01:12:54;95994.13;;;12.15
34310;BMP280;61664;48.112;11.662;2023-05-18T01:15:33;95989.38;;;12.10
34310;BMP280;61664;48.112;11.662;2023-05-18T01:18:09;95986.00;;;12.00
34310;BMP280;61664;48.112;11.662;2023-05-18T01:21:22;95989.00;;;11.93
34310;BMP280;61664;48.112;11.662;2023-05-18T01:27:06;95987.13;;;11.84
34310;BMP280;61664;48.112;11.662;2023-05-18T01:29:34;95970.63;;;11.77
34310;BMP280;61664;48.112;11.662;2023-05-18T01:32:06;95976.84;;;11.74
34310;BMP280;61664;48.112;11.662;2023-05-18T01:34:33;95960.22;;;11.61
34310;BMP280;61664;48.112;11.662;2023-05-18T01:37:00;95973.31;;;11.68
34310;BMP280;61664;48.112;11.662;2023-05-18T01:39:27;95977.75;;;11.71
34310;BMP280;61664;48.112;11.662;2023-05-18T01:42:01;95971.53;;;11.65
34310;BMP280;61664;48.112;11.662;2023-05-18T01:44:42;95983.41;;;11.64
34310;BMP280;61664;48.112;11.662;2023-05-18T01:47:15;95979.72;;;11.61
34310;BMP280;61664;48.112;11.662;2023-05-18T01:50:04;95965.00;;;11.47
34310;BMP280;61664;48.112;11.662;2023-05-18T01:55:09;95981.66;;;11.51
34310;BMP280;61664;48.112;11.662;2023-05-18T01:57:40;95959.06;;;11.43
34310;BMP280;61664;48.112;11.662;2023-05-18T02:00:09;95974.78;;;11.50
34310;BMP280;61664;48.112;11.662;2023-05-18T02:02:37;95962.47;;;11.53
34310;BMP280;61664;48.112;11.662;2023-05-18T02:05:05;95953.84;;;11.49
34310;BMP280;61664;48.112;11.662;2023-05-18T02:07:33;95967.66;;;11.66
34310;BMP280;61664;48.112;11.662;2023-05-18T02:10:00;95943.13;;;11.58
34310;BMP280;61664;48.112;11.662;2023-05-18T02:12:27;95961.09;;;11.67
34310;BMP280;61664;48.112;11.662;2023-05-18T02:14:54;95965.25;;;11.77
34310;BMP280;61664;48.112;11.662;2023-05-18T02:17:21;95956.34;;;11.71
34310;BMP280;61664;48.112;11.662;2023-05-18T02:19:52;95958.41;;;11.76
34310;BMP280;61664;48.112;11.662;2023-05-18T02:22:19;95962.41;;;11.80
34310;BMP280;61664;48.112;11.662;2023-05-18T02:24:46;95964.03;;;11.78
34310;BMP280;61664;48.112;11.662;2023-05-18T02:27:13;95956.00;;;11.78
34310;BMP280;61664;48.112;11.662;2023-05-18T02:29:41;95950.19;;;11.79
34310;BMP280;61664;48.112;11.662;2023-05-18T02:32:08;95956.44;;;11.85
34310;BMP280;61664;48.112;11.662;2023-05-18T02:34:38;95943.97;;;11.82
34310;BMP280;61664;48.112;11.662;2023-05-18T02:37:07;95944.84;;;11.88
34310;BMP280;61664;48.112;11.662;2023-05-18T02:39:34;95952.13;;;11.88
34310;BMP280;61664;48.112;11.662;2023-05-18T02:42:01;95956.88;;;11.93
34310;BMP280;61664;48.112;11.662;2023-05-18T02:44:28;95943.06;;;11.85
34310;BMP280;61664;48.112;11.662;2023-05-18T02:46:55;95952.13;;;11.88
34310;BMP280;61664;48.112;11.662;2023-05-18T02:49:22;95948.25;;;11.89
34310;BMP280;61664;48.112;11.662;2023-05-18T02:51:49;95947.06;;;11.90
34310;BMP280;61664;48.112;11.662;2023-05-18T02:54:16;95943.34;;;11.87
34310;BMP280;61664;48.112;11.662;2023-05-18T02:56:43;95956.13;;;11.93
34310;BMP280;61664;48.112;11.662;2023-05-18T02:59:10;95937.13;;;11.81
34310;BMP280;61664;48.112;11.662;2023-05-18T03:01:37;95944.09;;;11.88
34310;BMP280;61664;48.112;11.662;2023-05-18T03:04:05;95935.81;;;11.77
34310;BMP280;61664;48.112;11.662;2023-05-18T03:06:32;95933.28;;;11.73
34310;BMP280;61664;48.112;11.662;2023-05-18T03:09:01;95938.22;;;11.66
34310;BMP280;61664;48.112;11.662;2023-05-18T03:11:28;95930.19;;;11.57
34310;BMP280;61664;48.112;11.662;2023-05-18T03:13:55;95948.34;;;11.62
34310;BMP280;61664;48.112;11.662;2023-05-18T03:16:22;95940.00;;;11.50
34310;BMP280;61664;48.112;11.662;2023-05-18T03:18:54;95943.59;;;11.47
34310;BMP280;61664;48.112;11.662;2023-05-18T03:21:24;95930.38;;;11.35
34310;BMP280;61664;48.112;11.662;2023-05-18T03:23:51;95932.63;;;11.27
34310;BMP280;61664;48.112;11.662;2023-05-18T03:26:18;95935.47;;;11.24
34310;BMP280;61664;48.112;11.662;2023-05-18T03:28:45;95942.44;;;11.21
34310;BMP280;61664;48.112;11.662;2023-05-18T03:31:12;95938.44;;;11.16
34310;BMP280;61664;48.112;11.662;2023-05-18T03:33:39;95943.47;;;11.14
34310;BMP280;61664;48.112;11.662;2023-05-18T03:36:06;95935.59;;;11.02
34310;BMP280;61664;48.112;11.662;2023-05-18T03:38:33;95944.22;;;11.06
34310;BMP280;61664;48.112;11.662;2023-05-18T03:41:00;95947.78;;;11.03
34310;BMP280;61664;48.112;11.662;2023-05-18T03:43:27;95933.81;;;10.90
34310;BMP280;61664;48.112;11.662;2023-05-18T03:45:55;95944.09;;;10.91
34310;BMP280;61664;48.112;11.662;2023-05-18T03:48:23;95933.22;;;10.85
34310;BMP280;61664;48.112;11.662;2023-05-18T03:50:50;95946.75;;;10.91
34310;BMP280;61664;48.112;11.662;2023-05-18T03:53:17;95931.88;;;10.81
34310;BMP280;61664;48.112;11.662;2023-05-18T03:55:45;95942.88;;;10.83
34310;BMP280;61664;48.112;11.662;2023-05-18T03:58:12;95940.22;;;10.83
34310;BMP280;61664;48.112;11.662;2023-05-18T04:00:39;95950.72;;;10.86
34310;BMP280;61664;48.112;11.662;2023-05-18T04:03:06;95952.97;;;10.88
34310;BMP280;61664;48.112;11.662;2023-05-18T04:05:33;95946.13;;;10.87
34310;BMP280;61664;48.112;11.662;2023-05-18T04:08:00;95947.63;;;10.88
34310;BMP280;61664;48.112;11.662;2023-05-18T04:10:27;95936.91;;;10.88
34310;BMP280;61664;48.112;11.662;2023-05-18T04:12:54;95948.06;;;10.96
34310;BMP280;61664;48.112;11.662;2023-05-18T04:15:21;95940.22;;;10.92
34310;BMP280;61664;48.112;11.662;2023-05-18T04:17:50;95943.75;;;10.98
34310;BMP280;61664;48.112;11.662;2023-05-18T04:20:19;95957.16;;;11.07
34310;BMP280;61664;48.112;11.662;2023-05-18T04:22:47;95948.97;;;11.02
34310;BMP280;61664;48.112;11.662;2023-05-18T04:25:15;95963.41;;;11.13
34310;BMP280;61664;48.112;11.662;2023-05-18T04:27:42;95959.69;;;11.11
34310;BMP280;61664;48.112;11.662;2023-05-18T04:30:12;95951.06;;;11.07
34310;BMP280;61664;48.112;11.662;2023-05-18T04:32:39;95948.97;;;11.11
34310;BMP280;61664;48.112;11.662;2023-05-18T04:35:10;95967.38;;;11.18
34310;BMP280;61664;48.112;11.662;2023-05-18T04:37:38;95953.56;;;11.19
34310;BMP280;61664;48.112;11.662;2023-05-18T04:40:10;95954.00;;;11.18
34310;BMP280;61664;48.112;11.662;2023-05-18T04:42:40;95965.75;;;11.30
34310;BMP280;61664;48.112;11.662;2023-05-18T04:45:16;95976.31;;;11.33
34310;BMP280;61664;48.112;11.662;2023-05-18T04:47:46;95969.78;;;11.34
34310;BMP280;61664;48.112;11.662;2023-05-18T04:50:15;95976.91;;;11.37
34310;BMP280;61664;48.112;11.662;2023-05-18T04:52:45;95972.75;;;11.45
34310;BMP280;61664;48.112;11.662;2023-05-18T04:55:19;95979.72;;;11.52
34310;BMP280;61664;48.112;11.662;2023-05-18T04:57:54;95974.38;;;11.52
34310;BMP280;61664;48.112;11.662;2023-05-18T05:00:28;95967.84;;;11.53
34310;BMP280;61664;48.112;11.662;2023-05-18T05:02:56;95971.53;;;11.65
34310;BMP280;61664;48.112;11.662;2023-05-18T05:05:25;95976.41;;;11.66
34310;BMP280;61664;48.112;11.662;2023-05-18T05:07:53;95976.41;;;11.75
34310;BMP280;61664;48.112;11.662;2023-05-18T05:10:21;95975.97;;;11.77
34310;BMP280;61664;48.112;11.662;2023-05-18T05:12:51;95963.59;;;11.79
34310;BMP280;61664;48.112;11.662;2023-05-18T05:15:19;95966.13;;;11.83
34310;BMP280;61664;48.112;11.662;2023-05-18T05:17:46;95975.47;;;11.97
34310;BMP280;61664;48.112;11.662;2023-05-18T05:20:14;95974.41;;;12.03
34310;BMP280;61664;48.112;11.662;2023-05-18T05:22:42;95975.69;;;12.08
34310;BMP280;61664;48.112;11.662;2023-05-18T05:25:09;95980.75;;;12.15
34310;BMP280;61664;48.112;11.662;2023-05-18T05:27:36;95981.03;;;12.17
34310;BMP280;61664;48.112;11.662;2023-05-18T05:30:04;95974.03;;;12.19
34310;BMP280;61664;48.112;11.662;2023-05-18T05:32:31;95976.94;;;12.31
34310;BMP280;61664;48.112;11.662;2023-05-18T05:34:58;95966.84;;;12.35
34310;BMP280;61664;48.112;11.662;2023-05-18T05:37:26;95978.81;;;12.48
34310;BMP280;61664;48.112;11.662;2023-05-18T05:39:52;95973.84;;;12.56
34310;BMP280;61664;48.112;11.662;2023-05-18T05:42:20;95968.00;;;12.67
34310;BMP280;61664;48.112;11.662;2023-05-18T05:44:47;95966.91;;;12.73
34310;BMP280;61664;48.112;11.662;2023-05-18T05:47:14;95960.63;;;12.76
34310;BMP280;61664;48.112;11.662;2023-05-18T05:49:41;95978.25;;;12.92
34310;BMP280;61664;48.112;11.662;2023-05-18T05:52:07;95981.13;;;13.03
34310;BMP280;61664;48.112;11.662;2023-05-18T05:54:39;95968.47;;;13.04
34310;BMP280;61664;48.112;11.662;2023-05-18T05:57:06;95967.34;;;13.10
34310;BMP280;61664;48.112;11.662;2023-05-18T05:59:33;95957.50;;;13.16
34310;BMP280;61664;48.112;11.662;2023-05-18T06:02:00;95970.38;;;13.27
34310;BMP280;61664;48.112;11.662;2023-05-18T06:04:27;95961.69;;;13.32
34310;BMP280;61664;48.112;11.662;2023-05-18T06:06:54;95959.81;;;13.38
34310;BMP280;61664;48.112;11.662;2023-05-18T06:09:21;95972.88;;;13.45
34310;BMP280;61664;48.112;11.662;2023-05-18T06:11:48;95978.66;;;13.53
34310;BMP280;61664;48.112;11.662;2023-05-18T06:14:16;95976.69;;;13.53
34310;BMP280;61664;48.112;11.662;2023-05-18T06:16:43;95976.88;;;13.65
34310;BMP280;61664;48.112;11.662;2023-05-18T06:19:10;95978.00;;;13.73
34310;BMP280;61664;48.112;11.662;2023-05-18T06:21:37;95980.13;;;13.83
34310;BMP280;61664;48.112;11.662;2023-05-18T06:24:05;95975.56;;;13.89
34310;BMP280;61664;48.112;11.662;2023-05-18T06:26:32;95971.47;;;13.94
34310;BMP280;61664;48.112;11.662;2023-05-18T06:28:59;95979.50;;;14.09
34310;BMP280;61664;48.112;11.662;2023-05-18T06:31:26;95969.59;;;14.15
34310;BMP280;61664;48.112;11.662;2023-05-18T06:33:55;95971.44;;;14.23
34310;BMP280;61664;48.112;11.662;2023-05-18T06:36:22;95964.47;;;14.31
34310;BMP280;61664;48.112;11.662;2023-05-18T06:38:50;95977.94;;;14.52
34310;BMP280;61664;48.112;11.662;2023-05-18T06:41:17;95982.22;;;14.64
34310;BMP280;61664;48.112;11.662;2023-05-18T06:43:45;95976.72;;;14.73
34310;BMP280;61664;48.112;11.662;2023-05-18T06:46:22;95981.81;;;14.91
34310;BMP280;61664;48.112;11.662;2023-05-18T06:48:49;95976.22;;;14.95
34310;BMP280;61664;48.112;11.662;2023-05-18T06:51:17;95995.13;;;15.21
34310;BMP280;61664;48.112;11.662;2023-05-18T06:53:45;95982.28;;;15.36
34310;BMP280;61664;48.112;11.662;2023-05-18T06:56:12;95968.59;;;15.39
34310;BMP280;61664;48.112;11.662;2023-05-18T06:58:41;95981.78;;;15.63
34310;BMP280;61664;48.112;11.662;2023-05-18T07:01:09;95967.41;;;15.72
34310;BMP280;61664;48.112;11.662;2023-05-18T07:03:36;95983.25;;;15.96
34310;BMP280;61664;48.112;11.662;2023-05-18T07:06:04;95988.78;;;16.18
34310;BMP280;61664;48.112;11.662;2023-05-18T07:08:32;95973.44;;;16.35
34310;BMP280;61664;48.112;11.662;2023-05-18T07:10:59;95977.72;;;16.53
34310;BMP280;61664;48.112;11.662;2023-05-18T07:13:28;95986.38;;;16.74
34310;BMP280;61664;48.112;11.662;2023-05-18T07:15:56;95987.13;;;16.85
34310;BMP280;61664;48.112;11.662;2023-05-18T07:18:23;95994.28;;;16.94
34310;BMP280;61664;48.112;11.662;2023-05-18T07:20:50;95991.59;;;17.00
34310;BMP280;61664;48.112;11.662;2023-05-18T07:23:17;95974.16;;;16.90
34310;BMP280;61664;48.112;11.662;2023-05-18T07:25:44;95974.63;;;16.88
34310;BMP280;61664;48.112;11.662;2023-05-18T07:28:11;95981.72;;;16.85
34310;BMP280;61664;48.112;11.662;2023-05-18T07:30:38;95982.47;;;16.86
34310;BMP280;61664;48.112;11.662;2023-05-18T07:33:05;95955.69;;;16.71
34310;BMP280;61664;48.112;11.662;2023-05-18T07:35:32;95984.41;;;16.80
34310;BMP280;61664;48.112;11.662;2023-05-18T07:37:59;95979.28;;;16.82
34310;BMP280;61664;48.112;11.662;2023-05-18T07:40:26;95987.66;;;16.95
34310;BMP280;61664;48.112;11.662;2023-05-18T07:42:53;95974.41;;;16.97
34310;BMP280;61664;48.112;11.662;2023-05-18T07:45:20;95987.69;;;17.06
34310;BMP280;61664;48.112;11.662;2023-05-18T07:47:49;95982.53;;;17.08
34310;BMP280;61664;48.112;11.662;2023-05-18T07:50:16;95973.19;;;16.98
34310;BMP280;61664;48.112;11.662;2023-05-18T07:52:43;95979.31;;;16.99
34310;BMP280;61664;48.112;11.662;2023-05-18T07:55:10;95978.59;;;16.98
34310;BMP280;61664;48.112;11.662;2023-05-18T07:57:38;95966.81;;;17.01
34310;BMP280;61664;48.112;11.662;2023-05-18T08:00:06;95976.16;;;17.00
34310;BMP280;61664;48.112;11.662;2023-05-18T08:02:34;95994.31;;;17.16
34310;BMP280;61664;48.112;11.662;2023-05-18T08:05:02;95986.75;;;17.20
34310;BMP280;61664;48.112;11.662;2023-05-18T08:07:31;95976.44;;;17.25
34310;BMP280;61664;48.112;11.662;2023-05-18T08:09:58;95983.56;;;17.50
34310;BMP280;61664;48.112;11.662;2023-05-18T08:12:25;95982.09;;;17.71
34310;BMP280;61664;48.112;11.662;2023-05-18T08:14:52;95982.09;;;17.88
34310;BMP280;61664;48.112;11.662;2023-05-18T08:17:19;95976.66;;;18.05
34310;BMP280;61664;48.112;11.662;2023-05-18T08:19:47;95998.00;;;18.25
34310;BMP280;61664;48.112;11.662;2023-05-18T08:22:14;95996.28;;;18.27
34310;BMP280;61664;48.112;11.662;2023-05-18T08:24:41;95991.28;;;18.48
34310;BMP280;61664;48.112;11.662;2023-05-18T08:27:08;96000.34;;;18.62
34310;BMP280;61664;48.112;11.662;2023-05-18T08:29:37;95964.22;;;18.48
34310;BMP280;61664;48.112;11.662;2023-05-18T08:32:07;95993.38;;;18.78
34310;BMP280;61664;48.112;11.662;2023-05-18T08:34:34;95997.97;;;18.94
34310;BMP280;61664;48.112;11.662;2023-05-18T08:37:01;95988.59;;;19.00
34310;BMP280;61664;48.112;11.662;2023-05-18T08:39:28;95968.81;;;19.11
34310;BMP280;61664;48.112;11.662;2023-05-18T08:42:14;95990.69;;;19.48
34310;BMP280;61664;48.112;11.662;2023-05-18T08:45:01;95979.09;;;19.78
34310;BMP280;61664;48.112;11.662;2023-05-18T08:47:31;95983.44;;;19.86
34310;BMP280;61664;48.112;11.662;2023-05-18T08:50:01;95984.44;;;19.89
34310;BMP280;61664;48.112;11.662;2023-05-18T08:52:34;95986.84;;;19.68
34310;BMP280;61664;48.112;11.662;2023-05-18T08:55:06;95978.84;;;19.52
34310;BMP280;61664;48.112;11.662;2023-05-18T08:57:38;95986.91;;;19.27
34310;BMP280;61664;48.112;11.662;2023-05-18T09:00:10;95978.94;;;19.05
34310;BMP280;61664;48.112;11.662;2023-05-18T09:02:38;95968.91;;;18.94
34310;BMP280;61664;48.112;11.662;2023-05-18T09:05:06;95976.75;;;18.98
34310;BMP280;61664;48.112;11.662;2023-05-18T09:07:36;95963.13;;;19.15
34310;BMP280;61664;48.112;11.662;2023-05-18T09:10:06;95969.75;;;19.19
34310;BMP280;61664;48.112;11.662;2023-05-18T09:12:34;95978.22;;;19.94
34310;BMP280;61664;48.112;11.662;2023-05-18T09:15:03;95965.47;;;21.78
34310;BMP280;61664;48.112;11.662;2023-05-18T09:17:30;95971.19;;;23.58
34310;BMP280;61664;48.112;11.662;2023-05-18T09:19:57;95958.44;;;23.81
34310;BMP280;61664;48.112;11.662;2023-05-18T09:22:24;95988.38;;;23.45
34310;BMP280;61664;48.112;11.662;2023-05-18T09:24:52;95990.19;;;22.67
34310;BMP280;61664;48.112;11.662;2023-05-18T09:27:20;95969.78;;;21.87
34310;BMP280;61664;48.112;11.662;2023-05-18T09:29:56;95989.03;;;21.31
34310;BMP280;61664;48.112;11.662;2023-05-18T09:32:24;95992.19;;;20.84
34310;BMP280;61664;48.112;11.662;2023-05-18T09:34:52;95983.97;;;20.52
34310;BMP280;61664;48.112;11.662;2023-05-18T09:37:21;95988.47;;;20.25
34310;BMP280;61664;48.112;11.662;2023-05-18T09:40:03;95993.66;;;19.99
34310;BMP280;61664;48.112;11.662;2023-05-18T09:42:40;95987.75;;;19.76
34310;BMP280;61664;48.112;11.662;2023-05-18T09:45:20;95982.53;;;19.54
34310;BMP280;61664;48.112;11.662;2023-05-18T09:47:50;95990.25;;;19.44
34310;BMP280;61664;48.112;11.662;2023-05-18T09:50:22;95979.34;;;19.20
34310;BMP280;61664;48.112;11.662;2023-05-18T09:52:50;95988.00;;;19.13
34310;BMP280;61664;48.112;11.662;2023-05-18T09:55:18;95982.84;;;19.15
34310;BMP280;61664;48.112;11.662;2023-05-18T09:57:48;95988.69;;;19.19
34310;BMP280;61664;48.112;11.662;2023-05-18T10:00:18;95980.13;;;19.15
34310;BMP280;61664;48.112;11.662;2023-05-18T10:02:48;95993.38;;;19.24
34310;BMP280;61664;48.112;11.662;2023-05-18T10:07:53;95988.38;;;18.93
34310;BMP280;61664;48.112;11.662;2023-05-18T10:10:24;95988.50;;;19.12
34310;BMP280;61664;48.112;11.662;2023-05-18T10:12:54;95992.31;;;19.33
34310;BMP280;61664;48.112;11.662;2023-05-18T10:15:22;95986.38;;;19.34
34310;BMP280;61664;48.112;11.662;2023-05-18T10:17:55;95988.63;;;19.30
34310;BMP280;61664;48.112;11.662;2023-05-18T10:20:23;95982.09;;;19.50
34310;BMP280;61664;48.112;11.662;2023-05-18T10:22:55;95992.13;;;19.85
34310;BMP280;61664;48.112;11.662;2023-05-18T10:25:28;95995.28;;;19.89
34310;BMP280;61664;48.112;11.662;2023-05-18T10:27:59;95997.75;;;19.87
34310;BMP280;61664;48.112;11.662;2023-05-18T10:30:27;95992.06;;;19.91
34310;BMP280;61664;48.112;11.662;2023-05-18T10:32:56;95986.91;;;19.87
34310;BMP280;61664;48.112;11.662;2023-05-18T10:35:24;95988.13;;;19.86
34310;BMP280;61664;48.112;11.662;2023-05-18T10:37:56;95984.84;;;19.69
34310;BMP280;61664;48.112;11.662;2023-05-18T10:40:27;95981.75;;;19.59
34310;BMP280;61664;48.112;11.662;2023-05-18T10:42:56;95979.69;;;19.41
34310;BMP280;61664;48.112;11.662;2023-05-18T10:45:26;95977.91;;;19.14
34310;BMP280;61664;48.112;11.662;2023-05-18T10:47:55;95983.34;;;19.08
34310;BMP280;61664;48.112;11.662;2023-05-18T10:50:24;95975.78;;;19.01
34310;BMP280;61664;48.112;11.662;2023-05-18T10:55:20;95988.44;;;18.82
34310;BMP280;61664;48.112;11.662;2023-05-18T10:58:08;95991.66;;;18.75
34310;BMP280;61664;48.112;11.662;2023-05-18T11:00:40;95978.41;;;18.65
34310;BMP280;61664;48.112;11.662;2023-05-18T11:03:12;95980.56;;;18.78
34310;BMP280;61664;48.112;11.662;2023-05-18T11:05:40;95987.94;;;18.83
34310;BMP280;61664;48.112;11.662;2023-05-18T11:08:08;95985.94;;;18.84
34310;BMP280;61664;48.112;11.662;2023-05-18T11:10:41;95993.38;;;18.78
34310;BMP280;61664;48.112;11.662;2023-05-18T11:13:09;95983.81;;;18.65
34310;BMP280;61664;48.112;11.662;2023-05-18T11:16:05;95986.03;;;18.73
34310;BMP280;61664;48.112;11.662;2023-05-18T11:18:37;95985.16;;;18.89
34310;BMP280;61664;48.112;11.662;2023-05-18T11:21:48;95992.22;;;19.08
34310;BMP280;61664;48.112;11.662;2023-05-18T11:24:31;95984.03;;;19.20
34310;BMP280;61664;48.112;11.662;2023-05-18T11:27:14;95982.25;;;19.28
34310;BMP280;61664;48.112;11.662;2023-05-18T11:29:43;95974.94;;;19.47
34310;BMP280;61664;48.112;11.662;2023-05-18T11:32:27;95977.81;;;19.84
34310;BMP280;61664;48.112;11.662;2023-05-18T11:34:58;95982.09;;;20.23
34310;BMP280;61664;48.112;11.662;2023-05-18T11:40:09;95984.25;;;20.30
34310;BMP280;61664;48.112;11.662;2023-05-18T11:42:37;95990.75;;;20.21
34310;BMP280;61664;48.112;11.662;2023-05-18T11:45:11;95977.91;;;20.03
34310;BMP280;61664;48.112;11.662;2023-05-18T11:47:39;95996.31;;;20.10
34310;BMP280;61664;48.112;11.662;2023-05-18T11:50:09;95995.34;;;20.32
34310;BMP280;61664;48.112;11.662;2023-05-18T11:52:51;95995.78;;;20.55
34310;BMP280;61664;48.112;11.662;2023-05-18T11:55:19;95997.56;;;20.71
34310;BMP280;61664;48.112;11.662;2023-05-18T11:57:49;95978.69;;;20.60
34310;BMP280;61664;48.112;11.662;2023-05-18T12:00:19;95993.25;;;20.62
34310;BMP280;61664;48.112;11.662;2023-05-18T12:02:47;95988.81;;;20.78
34310;BMP280;61664;48.112;11.662;2023-05-18T12:05:15;95965.59;;;20.96
34310;BMP280;61664;48.112;11.662;2023-05-18T12:07:43;95961.00;;;21.23
34310;BMP280;61664;48.112;11.662;2023-05-18T12:10:12;95982.97;;;21.70
34310;BMP280;61664;48.112;11.662;2023-05-18T12:12:46;95979.63;;;21.90
34310;BMP280;61664;48.112;11.662;2023-05-18T12:15:14;95983.59;;;22.02
34310;BMP280;61664;48.112;11.662;2023-05-18T12:17:48;95981.41;;;22.01
34310;BMP280;61664;48.112;11.662;2023-05-18T12:20:19;95978.03;;;21.81
34310;BMP280;61664;48.112;11.662;2023-05-18T12:22:52;95982.63;;;21.60
34310;BMP280;61664;48.112;11.662;2023-05-18T12:25:22;95976.47;;;21.86
34310;BMP280;61664;48.112;11.662;2023-05-18T12:27:51;95973.75;;;21.86
34310;BMP280;61664;48.112;11.662;2023-05-18T12:30:24;95977.53;;;21.70
34310;BMP280;61664;48.112;11.662;2023-05-18T12:32:54;95976.94;;;21.45
34310;BMP280;61664;48.112;11.662;2023-05-18T12:35:23;95974.91;;;21.19
34310;BMP280;61664;48.112;11.662;2023-05-18T12:37:50;95977.34;;;21.04
34310;BMP280;61664;48.112;11.662;2023-05-18T12:40:19;95971.38;;;21.05
34310;BMP280;61664;48.112;11.662;2023-05-18T12:42:59;95971.31;;;21.11
34310;BMP280;61664;48.112;11.662;2023-05-18T12:45:30;95983.09;;;20.82
34310;BMP280;61664;48.112;11.662;2023-05-18T12:48:05;95984.88;;;20.60
34310;BMP280;61664;48.112;11.662;2023-05-18T12:50:33;95976.22;;;20.38
34310;BMP280;61664;48.112;11.662;2023-05-18T12:53:00;95975.13;;;20.27
34310;BMP280;61664;48.112;11.662;2023-05-18T12:55:29;95974.69;;;20.23
34310;BMP280;61664;48.112;11.662;2023-05-18T12:58:02;95969.31;;;20.18
34310;BMP280;61664;48.112;11.662;2023-05-18T13:00:36;95953.47;;;20.03
34310;BMP280;61664;48.112;11.662;2023-05-18T13:03:12;95965.66;;;20.15
34310;BMP280;61664;48.112;11.662;2023-05-18T13:05:44;95958.19;;;20.21
34310;BMP280;61664;48.112;11.662;2023-05-18T13:08:16;95945.94;;;20.15
34310;BMP280;61664;48.112;11.662;2023-05-18T13:10:47;95956.63;;;20.07
34310;BMP280;61664;48.112;11.662;2023-05-18T13:13:32;95951.44;;;19.85
34310;BMP280;61664;48.112;11.662;2023-05-18T13:15:59;95965.38;;;19.70
34310;BMP280;61664;48.112;11.662;2023-05-18T13:18:27;95934.53;;;19.49
34310;BMP280;61664;48.112;11.662;2023-05-18T13:20:57;95962.22;;;19.66
34310;BMP280;61664;48.112;11.662;2023-05-18T13:23:29;95948.50;;;19.83
34310;BMP280;61664;48.112;11.662;2023-05-18T13:25:56;95952.13;;;19.91
34310;BMP280;61664;48.112;11.662;2023-05-18T13:28:25;95954.56;;;19.95
34310;BMP280;61664;48.112;11.662;2023-05-18T13:30:53;95948.19;;;19.86
34310;BMP280;61664;48.112;11.662;2023-05-18T13:33:20;95955.41;;;19.84
34310;BMP280;61664;48.112;11.662;2023-05-18T13:35:47;95933.41;;;19.63
34310;BMP280;61664;48.112;11.662;2023-05-18T13:38:15;95951.59;;;19.68
34310;BMP280;61664;48.112;11.662;2023-05-18T13:40:43;95944.47;;;19.65
34310;BMP280;61664;48.112;11.662;2023-05-18T13:43:11;95941.84;;;19.84
34310;BMP280;61664;48.112;11.662;2023-05-18T13:45:40;95928.44;;;19.92
34310;BMP280;61664;48.112;11.662;2023-05-18T13:48:07;95925.44;;;19.95
34310;BMP280;61664;48.112;11.662;2023-05-18T13:50:37;95939.34;;;20.10
34310;BMP280;61664;48.112;11.662;2023-05-18T13:53:05;95932.22;;;20.07
34310;BMP280;61664;48.112;11.662;2023-05-18T13:55:33;95939.56;;;20.12
34310;BMP280;61664;48.112;11.662;2023-05-18T13:58:00;95929.97;;;20.11
34310;BMP280;61664;48.112;11.662;2023-05-18T14:00:27;95924.41;;;19.98
34310;BMP280;61664;48.112;11.662;2023-05-18T14:02:54;95916.53;;;19.76
34310;BMP280;61664;48.112;11.662;2023-05-18T14:05:22;95915.63;;;19.68
34310;BMP280;61664;48.112;11.662;2023-05-18T14:07:49;95905.00;;;19.45
34310;BMP280;61664;48.112;11.662;2023-05-18T14:10:18;95923.97;;;19.45
34310;BMP280;61664;48.112;11.662;2023-05-18T14:12:46;95905.09;;;19.34
34310;BMP280;61664;48.112;11.662;2023-05-18T14:15:13;95918.88;;;19.36
34310;BMP280;61664;48.112;11.662;2023-05-18T14:17:44;95910.50;;;19.34
34310;BMP280;61664;48.112;11.662;2023-05-18T14:20:11;95922.63;;;19.28
34310;BMP280;61664;48.112;11.662;2023-05-18T14:22:39;95919.19;;;19.27